CDT,Max TemperatureF,Mean TemperatureF,Min TemperatureF,Max Dew PointF,MeanDew PointF,Min DewpointF,Max Humidity, Mean Humidity, Min Humidity, Max Sea Level PressureIn, Mean Sea Level PressureIn, Min Sea Level PressureIn, Max VisibilityMiles, Mean VisibilityMiles, Min VisibilityMiles, Max Wind SpeedMPH, Mean Wind SpeedMPH, Max Gust SpeedMPH,PrecipitationIn, CloudCover, Events, WindDirDegrees
2013-7-1,79,65,50,55,50,45,93,62,31,30.26,30.23,30.18,10,8,6,13,5,18,0.00,0,,127
2013-7-2,83,65,47,50,46,42,93,60,26,30.22,30.15,30.07,10,9,6,13,5,20,0.00,0,,155
2013-7-3,88,72,55,52,47,41,83,52,21,30.07,29.95,29.83,10,10,10,21,10,33,0.00,1,,155
2013-7-4,95,78,61,64,54,48,81,54,26,29.83,29.79,29.73,10,10,9,24,10,30,T,0,Thunderstorm,188
2013-7-5,89,74,59,62,60,55,100,68,35,29.80,29.75,29.69,10,10,7,16,6,22,0.00,0,,113
2013-7-6,95,81,67,64,61,58,81,57,33,29.78,29.71,29.68,10,10,10,17,9,23,T,1,Thunderstorm,50
2013-7-7,85,76,66,69,64,61,93,72,51,30.02,29.90,29.80,10,9,2,20,8,24,0.12,2,Rain,347
2013-7-8,91,77,63,68,65,62,100,74,47,30.06,29.97,29.88,10,7,0,26,7,32,0.01,2,Fog-Rain-Thunderstorm,118
2013-7-9,89,76,63,66,61,56,100,67,34,30.09,29.97,29.83,10,10,6,21,6,25,0.00,0,,12
2013-7-10,88,73,57,65,60,56,93,67,40,30.15,30.06,29.96,10,10,10,21,8,25,0.00,1,,142
2013-7-11,97,81,65,68,63,59,87,60,33,29.97,29.88,29.77,10,10,10,25,16,32,0.00,0,,180
2013-7-12,98,86,73,66,62,58,73,50,27,29.86,29.77,29.73,10,10,10,28,13,33,0.00,0,,224
2013-7-13,89,79,68,75,68,63,91,75,59,30.06,29.91,29.82,10,9,2,30,6,41,0.24,2,Rain-Thunderstorm,23
2013-7-14,78,74,70,75,71,68,100,94,87,30.17,30.06,29.86,10,6,1,25,10,32,0.42,7,Rain-Thunderstorm,7
2013-7-15,87,78,69,70,65,55,100,68,35,30.19,30.12,30.01,10,6,2,22,12,28,0.57,5,Rain,164
2013-7-16,85,74,63,62,60,57,87,64,40,30.17,30.12,30.08,10,10,10,23,14,30,0.00,1,,185
2013-7-17,91,79,66,62,61,59,81,59,37,30.20,30.14,30.04,10,10,10,28,14,35,0.00,0,,188
2013-7-18,96,83,70,67,62,59,73,52,30,30.04,29.92,29.81,10,10,9,25,14,32,0.00,0,,209
2013-7-19,86,77,68,64,58,54,73,54,34,30.04,29.96,29.88,10,10,10,15,7,22,0.00,0,,50
2013-7-20,89,77,64,66,60,55,87,63,38,30.03,29.90,29.81,10,9,2,31,11,36,0.15,2,Rain-Thunderstorm,141
2013-7-21,90,77,64,62,58,54,81,58,34,29.90,29.82,29.72,10,10,10,35,9,39,0.01,1,Rain,192
2013-7-22,86,75,63,62,59,52,81,57,32,29.89,29.83,29.72,10,10,10,20,9,25,0.03,0,,23
2013-7-23,82,72,62,64,62,58,93,72,51,30.07,29.97,29.83,10,10,7,33,8,41,0.04,4,Rain-Thunderstorm,68
2013-7-24,90,74,57,65,60,55,97,65,32,30.09,30.04,29.97,10,10,10,17,7,23,0.00,0,,336
2013-7-25,83,71,59,63,59,56,93,68,42,30.09,30.01,29.95,10,10,10,18,6,23,T,1,,2
2013-7-26,75,65,55,57,49,46,78,58,38,30.26,30.18,30.11,10,10,10,17,9,25,0.00,1,,25
2013-7-27,75,65,55,49,45,41,77,56,35,30.20,30.12,30.03,10,10,10,13,6,15,0.00,4,,86
2013-7-28,74,62,50,55,49,44,80,62,44,30.05,30.00,29.96,10,10,10,21,11,25,0.00,6,,148
2013-7-29,81,71,61,63,59,55,90,72,54,30.03,29.96,29.91,10,10,10,17,10,21,0.00,6,,170
2013-7-30,90,75,60,64,61,57,100,67,34,30.22,30.07,29.96,10,5,0,43,11,54,2.18,4,Fog-Rain-Thunderstorm,113
2013-7-31,81,72,63,64,61,58,87,69,51,30.24,30.13,30.04,10,10,10,20,7,22,0.01,1,Rain,354